createdAt,value
2018-09-18T00:01:13.207Z,65.38
2018-09-18T00:03:41.247Z,65.21
2018-09-18T00:06:09.454Z,65.69
2018-09-18T00:08:37.512Z,66.07
2018-09-18T00:11:05.619Z,66.08
2018-09-18T00:13:33.659Z,65.57
2018-09-18T00:16:01.712Z,65.88
2018-09-18T00:18:29.739Z,66.07
2018-09-18T00:20:57.748Z,66.51
2018-09-18T00:23:25.782Z,66.09
2018-09-18T00:25:53.816Z,65.96
2018-09-18T00:28:21.864Z,65.86
2018-09-18T00:30:50.015Z,66.35
2018-09-18T00:33:18.037Z,65.93
2018-09-18T00:35:46.053Z,66.53
2018-09-18T00:38:14.107Z,65.81
2018-09-18T00:40:42.141Z,65.98
2018-09-18T00:43:10.166Z,66.29
2018-09-18T00:45:38.211Z,66.70
2018-09-18T00:48:06.239Z,65.96
2018-09-18T00:50:34.740Z,66.12
2018-09-18T00:53:02.832Z,66.46
2018-09-18T00:55:30.904Z,66.43
2018-09-18T00:57:58.950Z,66.15
2018-09-18T01:00:27.041Z,65.75
2018-09-18T01:02:55.067Z,66.53
2018-09-18T01:05:24.087Z,66.06
2018-09-18T01:07:52.125Z,66.18
2018-09-18T01:10:20.256Z,65.87
2018-09-18T01:12:48.353Z,66.44
2018-09-18T01:15:16.577Z,66.64
2018-09-18T01:17:44.600Z,66.97
2018-09-18T01:20:12.848Z,66.24
2018-09-18T01:22:40.967Z,66.93
2018-09-18T01:25:09.016Z,66.92
2018-09-18T01:27:37.247Z,67.37
2018-09-18T01:30:05.753Z,66.70
2018-09-18T01:32:33.795Z,66.56
2018-09-18T01:35:01.902Z,66.28
2018-09-18T01:37:30.248Z,66.63
2018-09-18T01:39:58.267Z,66.47
2018-09-18T01:42:26.284Z,66.54
2018-09-18T01:44:54.472Z,66.04
2018-09-18T01:47:22.576Z,66.08
2018-09-18T01:49:50.607Z,66.34
2018-09-18T01:52:18.647Z,66.08
2018-09-18T01:54:46.694Z,66.52
2018-09-18T01:57:14.744Z,67.11
2018-09-18T01:59:42.904Z,66.42
2018-09-18T02:02:10.944Z,66.84
2018-09-18T02:04:38.983Z,66.32
2018-09-18T02:07:07.125Z,66.57
2018-09-18T02:09:35.159Z,67.22
2018-09-18T02:12:03.236Z,67.36
2018-09-18T02:14:31.275Z,67.28
2018-09-18T02:16:59.332Z,67.23
2018-09-18T02:19:27.372Z,67.58
2018-09-18T02:21:55.409Z,66.74
2018-09-18T02:24:23.464Z,67.08
2018-09-18T02:26:51.497Z,66.99
2018-09-18T02:29:19.568Z,66.94
2018-09-18T02:31:47.679Z,67.21
2018-09-18T02:34:15.888Z,66.81
2018-09-18T02:36:43.923Z,67.16
2018-09-18T02:39:13.256Z,67.12
2018-09-18T02:41:41.888Z,67.24
2018-09-18T02:44:10.104Z,67.36
2018-09-18T02:46:38.131Z,66.97
2018-09-18T02:49:06.328Z,67.24
2018-09-18T02:51:34.403Z,67.46
2018-09-18T02:54:02.453Z,66.94
2018-09-18T02:56:30.663Z,67.39
2018-09-18T02:58:58.953Z,67.11
2018-09-18T03:01:26.981Z,67.10
2018-09-18T03:03:55.044Z,67.38
2018-09-18T03:06:23.319Z,67.21
2018-09-18T03:08:51.379Z,66.82
2018-09-18T03:11:19.463Z,67.09
2018-09-18T03:13:47.792Z,66.86
2018-09-18T03:16:15.833Z,67.17
2018-09-18T03:18:43.902Z,67.35
2018-09-18T03:21:12.013Z,66.60
2018-09-18T03:23:40.028Z,66.78
2018-09-18T03:26:08.314Z,67.04
2018-09-18T03:28:36.333Z,67.30
2018-09-18T03:31:05.212Z,68.01
2018-09-18T03:33:33.240Z,66.98
2018-09-18T03:36:01.276Z,67.48
2018-09-18T03:38:29.287Z,67.90
2018-09-18T03:40:57.774Z,67.88
2018-09-18T03:43:25.825Z,67.33
2018-09-18T03:45:53.859Z,68.07
2018-09-18T03:48:22.040Z,68.04
2018-09-18T03:50:50.060Z,68.03
2018-09-18T03:53:18.132Z,68.05
2018-09-18T03:55:46.179Z,68.04
2018-09-18T03:58:14.279Z,67.60
2018-09-18T04:00:42.959Z,67.96
2018-09-18T04:03:11.040Z,67.89
2018-09-18T04:05:39.080Z,68.70
2018-09-18T04:08:07.481Z,68.08
2018-09-18T04:10:35.500Z,68.25
2018-09-18T04:13:03.541Z,68.10
2018-09-18T04:15:32.006Z,68.81
2018-09-18T04:18:00.052Z,68.72
2018-09-18T04:20:28.100Z,68.91
2018-09-18T04:22:56.224Z,68.60
2018-09-18T04:25:24.305Z,68.91
2018-09-18T04:27:55.438Z,67.93
2018-09-18T04:30:23.542Z,68.69
2018-09-18T04:32:51.574Z,68.36
2018-09-18T04:35:19.606Z,68.88
2018-09-18T04:37:47.623Z,68.73
2018-09-18T04:40:15.667Z,68.70
2018-09-18T04:42:43.712Z,68.71
2018-09-18T04:45:11.775Z,68.50
2018-09-18T04:47:39.972Z,67.98
2018-09-18T04:50:08.076Z,68.32
2018-09-18T04:52:36.154Z,68.48
2018-09-18T04:55:04.803Z,67.88
2018-09-18T04:57:33.211Z,68.68
2018-09-18T05:00:01.238Z,68.47
2018-09-18T05:02:29.272Z,68.53
2018-09-18T05:04:57.301Z,68.39
2018-09-18T05:07:25.348Z,68.31
2018-09-18T05:09:53.393Z,68.86
2018-09-18T05:12:21.490Z,68.33
2018-09-18T05:14:49.517Z,68.17
2018-09-18T05:17:17.676Z,68.38
2018-09-18T05:19:45.724Z,68.39
2018-09-18T05:22:13.909Z,68.17
2018-09-18T05:24:41.964Z,68.71
2018-09-18T05:27:10.048Z,68.17
2018-09-18T05:29:38.143Z,68.88
2018-09-18T05:32:06.525Z,68.91
2018-09-18T05:34:34.585Z,68.19
2018-09-18T05:37:02.651Z,69.27
2018-09-18T05:39:30.726Z,69.01
2018-09-18T05:41:59.105Z,69.00
2018-09-18T05:44:27.183Z,69.58
2018-09-18T05:46:55.269Z,68.51
2018-09-18T05:49:25.266Z,68.54
2018-09-18T05:51:53.294Z,69.44
2018-09-18T05:54:21.420Z,69.36
2018-09-18T05:56:49.492Z,69.40
2018-09-18T05:59:17.559Z,70.00
2018-09-18T06:01:45.594Z,69.00
2018-09-18T06:04:13.653Z,69.67
2018-09-18T06:06:41.692Z,69.64
2018-09-18T06:09:10.815Z,69.97
2018-09-18T06:11:38.892Z,69.83
2018-09-18T06:14:06.948Z,69.92
2018-09-18T06:16:35.339Z,69.96
2018-09-18T06:19:03.524Z,69.87
2018-09-18T06:21:31.572Z,69.95
2018-09-18T06:23:59.961Z,69.51
2018-09-18T06:26:28.670Z,68.85
2018-09-18T06:28:56.879Z,68.69
2018-09-18T06:31:24.927Z,69.05
2018-09-18T06:33:53.569Z,69.46
2018-09-18T06:36:22.002Z,69.27
2018-09-18T06:38:50.239Z,69.55
2018-09-18T06:41:18.313Z,68.67
2018-09-18T06:43:46.438Z,68.99
2018-09-18T06:46:14.510Z,68.62
2018-09-18T06:48:42.553Z,69.10
2018-09-18T06:51:10.592Z,69.03
2018-09-18T06:53:38.648Z,69.10
2018-09-18T06:56:07.071Z,69.18
2018-09-18T06:58:35.124Z,69.00
2018-09-18T07:01:03.252Z,68.12
2018-09-18T07:03:31.310Z,67.63
2018-09-18T07:05:59.352Z,67.45
2018-09-18T07:08:27.709Z,67.63
2018-09-18T07:10:55.736Z,67.01
2018-09-18T07:13:23.964Z,66.40
2018-09-18T07:15:53.144Z,66.12
2018-09-18T07:18:21.237Z,65.09
2018-09-18T07:20:50.072Z,64.33
2018-09-18T07:23:18.242Z,64.75
2018-09-18T07:25:46.295Z,63.81
2018-09-18T07:28:15.353Z,63.61
2018-09-18T07:30:43.622Z,62.88
2018-09-18T07:33:11.674Z,62.40
2018-09-18T07:35:39.881Z,62.16
2018-09-18T07:38:07.927Z,60.48
2018-09-18T07:40:35.995Z,60.25
2018-09-18T07:43:04.864Z,59.56
2018-09-18T07:45:33.092Z,59.04
2018-09-18T07:48:01.165Z,57.64
2018-09-18T07:50:29.228Z,57.65
2018-09-18T07:52:57.274Z,58.03
2018-09-18T07:55:25.313Z,56.33
2018-09-18T07:57:53.437Z,55.78
2018-09-18T08:00:21.526Z,55.58
2018-09-18T08:02:50.258Z,56.19
2018-09-18T08:05:18.316Z,55.86
2018-09-18T08:07:46.395Z,53.82
2018-09-18T08:10:14.433Z,53.65
2018-09-18T08:12:42.493Z,53.31
2018-09-18T08:15:10.533Z,53.00
2018-09-18T08:17:38.577Z,51.93
2018-09-18T08:20:06.610Z,51.74
2018-09-18T08:22:34.645Z,50.75
2018-09-18T08:25:02.742Z,49.78
2018-09-18T08:27:31.194Z,49.82
2018-09-18T08:29:59.456Z,49.69
2018-09-18T08:32:27.751Z,48.76
2018-09-18T08:34:56.333Z,47.37
2018-09-18T08:37:24.393Z,46.63
2018-09-18T08:39:52.483Z,46.71
2018-09-18T08:42:20.478Z,46.11
2018-09-18T08:44:48.512Z,47.02
2018-09-18T08:47:16.615Z,45.26
2018-09-18T08:49:44.641Z,46.26
2018-09-18T08:52:12.856Z,45.04
2018-09-18T08:54:40.946Z,43.71
2018-09-18T08:57:08.968Z,44.01
2018-09-18T08:59:38.001Z,43.18
2018-09-18T09:02:06.074Z,42.82
2018-09-18T09:04:34.139Z,40.26
2018-09-18T09:07:02.160Z,39.75
2018-09-18T09:09:30.215Z,40.23
2018-09-18T09:11:58.227Z,39.28
2018-09-18T09:14:26.475Z,38.67
2018-09-18T09:16:54.457Z,38.60
2018-09-18T09:19:22.493Z,38.32
2018-09-18T09:21:50.944Z,37.45
2018-09-18T09:24:18.936Z,38.22
2018-09-18T09:26:47.052Z,37.53
2018-09-18T09:29:15.004Z,38.32
2018-09-18T09:31:43.052Z,37.43
2018-09-18T09:34:11.508Z,37.36
2018-09-18T09:36:39.511Z,36.25
2018-09-18T09:39:09.535Z,36.78
2018-09-18T09:41:37.570Z,35.74
2018-09-18T09:44:05.763Z,35.76
2018-09-18T09:46:33.760Z,36.61
2018-09-18T09:49:01.793Z,35.20
2018-09-18T09:51:29.884Z,35.62
2018-09-18T09:53:57.862Z,35.90
2018-09-18T09:56:26.092Z,36.26
2018-09-18T09:58:54.132Z,36.53
2018-09-18T10:01:27.457Z,36.17
2018-09-18T10:03:55.880Z,35.10
2018-09-18T10:06:23.928Z,35.32
2018-09-18T10:08:51.956Z,35.73
2018-09-18T10:11:20.118Z,36.92
2018-09-18T10:13:48.147Z,36.68
2018-09-18T10:16:16.477Z,35.80
2018-09-18T10:18:44.545Z,37.10
2018-09-18T10:21:12.587Z,36.17
2018-09-18T10:23:40.700Z,36.08
2018-09-18T10:26:08.781Z,35.96
2018-09-18T10:28:37.121Z,35.60
2018-09-18T10:31:05.157Z,36.48
2018-09-18T10:33:33.262Z,34.98
2018-09-18T10:36:01.344Z,36.21
2018-09-18T10:38:29.411Z,36.78
2018-09-18T10:40:57.539Z,36.48
2018-09-18T10:43:25.510Z,36.09
2018-09-18T10:45:53.558Z,35.66
2018-09-18T10:48:22.024Z,35.46
2018-09-18T10:50:50.027Z,34.77
2018-09-18T10:53:18.064Z,35.04
2018-09-18T10:55:46.215Z,35.29
2018-09-18T10:58:14.236Z,35.00
2018-09-18T11:00:42.649Z,35.82
2018-09-18T11:03:11.125Z,36.05
2018-09-18T11:05:39.408Z,35.23
2018-09-18T11:08:07.458Z,35.79
2018-09-18T11:10:35.583Z,35.74
2018-09-18T11:13:03.545Z,35.07
2018-09-18T11:15:31.816Z,35.37
2018-09-18T11:17:59.835Z,35.64
2018-09-18T11:20:27.880Z,34.63
2018-09-18T11:22:55.909Z,35.49
2018-09-18T11:25:24.189Z,34.58
2018-09-18T11:27:52.234Z,35.50
2018-09-18T11:30:20.260Z,34.85
2018-09-18T11:32:48.543Z,34.61
2018-09-18T11:35:16.579Z,34.72
2018-09-18T11:37:44.609Z,35.48
2018-09-18T11:40:12.625Z,34.72
2018-09-18T11:42:40.685Z,34.92
2018-09-18T11:45:08.733Z,35.09
2018-09-18T11:47:36.748Z,33.68
2018-09-18T11:50:05.197Z,33.99
2018-09-18T11:52:33.229Z,33.32
2018-09-18T11:55:01.256Z,34.26
2018-09-18T11:57:29.324Z,33.96
2018-09-18T11:59:57.601Z,33.76
2018-09-18T12:02:25.665Z,33.76
2018-09-18T12:04:53.698Z,32.38
2018-09-18T12:07:21.757Z,32.41
2018-09-18T12:09:49.920Z,32.23
2018-09-18T12:12:17.956Z,32.22
2018-09-18T12:14:46.101Z,32.58
2018-09-18T12:17:14.186Z,32.67
2018-09-18T12:19:42.273Z,31.29
2018-09-18T12:22:10.362Z,30.05
2018-09-18T12:24:38.622Z,30.98
2018-09-18T12:27:06.738Z,30.56
2018-09-18T12:29:35.083Z,31.01
2018-09-18T12:32:03.092Z,30.29
2018-09-18T12:34:31.501Z,30.68
2018-09-18T12:36:59.550Z,31.10
2018-09-18T12:39:27.577Z,30.21
2018-09-18T12:41:55.833Z,31.42
2018-09-18T12:44:23.828Z,30.53
2018-09-18T12:46:51.978Z,29.72
2018-09-18T12:49:20.128Z,29.67
2018-09-18T12:51:48.353Z,30.46
2018-09-18T12:54:16.469Z,29.80
2018-09-18T12:56:44.463Z,30.09
2018-09-18T12:59:12.616Z,29.59
2018-09-18T13:01:40.657Z,29.96
2018-09-18T13:04:08.708Z,29.58
2018-09-18T13:06:36.853Z,30.05
2018-09-18T13:09:07.654Z,28.39
2018-09-18T13:11:35.718Z,29.61
2018-09-18T13:14:10.565Z,28.85
2018-09-18T13:16:38.597Z,28.73
2018-09-18T13:19:06.973Z,29.48
2018-09-18T13:21:35.022Z,30.33
2018-09-18T13:24:03.055Z,29.76
2018-09-18T13:26:31.166Z,29.63
2018-09-18T13:28:59.225Z,29.63
2018-09-18T13:31:27.248Z,29.40
2018-09-18T13:33:55.370Z,28.71
2018-09-18T13:36:23.539Z,28.69
2018-09-18T13:38:51.892Z,28.76
2018-09-18T13:41:20.599Z,28.26
2018-09-18T13:43:48.526Z,28.67
2018-09-18T13:46:16.581Z,28.35
2018-09-18T13:48:44.584Z,28.12
2018-09-18T13:51:12.815Z,28.51
2018-09-18T13:53:40.829Z,28.50
2018-09-18T13:56:08.914Z,28.73
2018-09-18T13:58:37.598Z,28.93
2018-09-18T14:01:05.672Z,29.05
2018-09-18T14:03:33.659Z,28.42
2018-09-18T14:06:01.684Z,28.37
2018-09-18T14:08:29.717Z,27.32
2018-09-18T14:10:57.747Z,28.06
2018-09-18T14:13:25.776Z,28.25
2018-09-18T14:15:53.816Z,27.80
2018-09-18T14:18:21.864Z,27.29
2018-09-18T14:20:49.957Z,26.86
2018-09-18T14:23:17.979Z,27.78
2018-09-18T14:25:46.110Z,27.99
2018-09-18T14:28:14.143Z,28.32
2018-09-18T14:30:42.703Z,28.54
2018-09-18T14:33:10.796Z,28.49
2018-09-18T14:35:38.996Z,29.04
2018-09-18T14:38:07.112Z,28.68
2018-09-18T14:40:35.316Z,28.80
2018-09-18T14:43:03.188Z,29.19
2018-09-18T14:45:31.216Z,30.11
2018-09-18T14:47:59.255Z,28.21
2018-09-18T14:50:27.296Z,27.88
2018-09-18T14:52:55.348Z,28.02
2018-09-18T14:55:23.553Z,29.88
2018-09-18T14:57:51.578Z,29.05
2018-09-18T15:00:19.760Z,29.92
2018-09-18T15:02:48.772Z,30.82
2018-09-18T15:05:16.825Z,31.20
2018-09-18T15:07:44.856Z,31.09
2018-09-18T15:10:12.948Z,30.79
2018-09-18T15:12:40.973Z,30.84
2018-09-18T15:15:08.995Z,31.74
2018-09-18T15:17:37.289Z,31.46
2018-09-18T15:20:05.512Z,32.05
2018-09-18T15:22:33.604Z,31.99
2018-09-18T15:25:01.817Z,32.38
2018-09-18T15:27:29.880Z,31.51
2018-09-18T15:29:57.900Z,32.52
2018-09-18T15:32:25.944Z,32.48
2018-09-18T15:34:53.992Z,32.60
2018-09-18T15:37:22.340Z,32.95
2018-09-18T15:39:50.738Z,33.22
2018-09-18T15:42:18.687Z,31.75
2018-09-18T15:44:46.710Z,32.63
2018-09-18T15:47:14.757Z,32.18
2018-09-18T15:49:42.797Z,33.50
2018-09-18T15:52:10.936Z,33.05
2018-09-18T15:54:39.282Z,33.51
2018-09-18T15:57:07.336Z,33.35
2018-09-18T15:59:35.372Z,32.67
2018-09-18T16:02:03.670Z,32.95
2018-09-18T16:04:31.686Z,34.92
2018-09-18T16:06:59.725Z,33.84
2018-09-18T16:09:27.818Z,34.43
2018-09-18T16:11:55.827Z,33.31
2018-09-18T16:14:24.038Z,32.94
2018-09-18T16:16:52.092Z,32.75
2018-09-18T16:19:20.080Z,33.69
2018-09-18T16:21:48.183Z,34.07
2018-09-18T16:24:16.219Z,32.69
2018-09-18T16:26:44.276Z,32.99
2018-09-18T16:29:12.335Z,33.09
2018-09-18T16:31:40.364Z,33.13
2018-09-18T16:34:08.660Z,32.96
2018-09-18T16:36:36.887Z,31.97
2018-09-18T16:39:05.897Z,33.82
2018-09-18T16:41:33.965Z,33.80
2018-09-18T16:44:02.079Z,33.09
2018-09-18T16:46:30.145Z,34.21
2018-09-18T16:48:58.218Z,34.19
2018-09-18T16:51:26.290Z,33.58
2018-09-18T16:53:54.362Z,34.05
2018-09-18T16:56:22.471Z,34.08
2018-09-18T16:58:50.509Z,35.23
2018-09-18T17:01:18.549Z,36.22
2018-09-18T17:03:46.611Z,35.64
2018-09-18T17:06:14.786Z,37.13
2018-09-18T17:08:42.876Z,37.37
2018-09-18T17:11:10.966Z,37.94
2018-09-18T17:13:39.082Z,38.25
2018-09-18T17:16:07.156Z,37.61
2018-09-18T17:18:35.315Z,38.67
2018-09-18T17:21:03.319Z,38.27
2018-09-18T17:23:31.392Z,38.50
2018-09-18T17:25:59.464Z,39.28
2018-09-18T17:28:27.628Z,39.74
2018-09-18T17:30:55.640Z,40.10
2018-09-18T17:33:23.779Z,40.45
2018-09-18T17:35:51.939Z,40.74
2018-09-18T17:38:20.002Z,41.02
2018-09-18T17:40:48.099Z,41.97
2018-09-18T17:43:16.220Z,41.23
2018-09-18T17:45:44.324Z,41.51
2018-09-18T17:48:12.511Z,42.13
2018-09-18T17:50:40.588Z,42.28
2018-09-18T17:53:08.635Z,42.68
2018-09-18T17:55:36.704Z,43.16
2018-09-18T17:58:04.944Z,42.62
2018-09-18T18:00:32.997Z,43.17
2018-09-18T18:03:01.079Z,44.01
2018-09-18T18:05:29.198Z,43.69
2018-09-18T18:07:57.224Z,43.40
2018-09-18T18:10:25.290Z,44.47
2018-09-18T18:12:53.343Z,44.27
2018-09-18T18:15:21.401Z,44.90
2018-09-18T18:17:49.506Z,44.53
2018-09-18T18:20:17.962Z,44.73
2018-09-18T18:22:45.984Z,45.07
2018-09-18T18:25:14.024Z,46.32
2018-09-18T18:27:42.112Z,46.48
2018-09-18T18:30:10.442Z,46.42
2018-09-18T18:32:38.471Z,46.95
2018-09-18T18:35:06.516Z,47.07
2018-09-18T18:37:34.577Z,47.28
2018-09-18T18:40:02.649Z,47.47
2018-09-18T18:42:30.730Z,47.04
2018-09-18T18:44:58.802Z,47.03
2018-09-18T18:47:26.959Z,47.23
2018-09-18T18:49:55.002Z,47.24
2018-09-18T18:52:42.631Z,47.27
2018-09-18T18:55:10.696Z,48.67
2018-09-18T18:57:38.786Z,49.25
2018-09-18T19:00:07.345Z,48.31
2018-09-18T19:02:35.420Z,49.02
2018-09-18T19:05:04.604Z,49.61
2018-09-18T19:07:32.817Z,49.79
2018-09-18T19:10:00.924Z,49.58
2018-09-18T19:12:29.089Z,50.35
2018-09-18T19:14:57.127Z,50.61
2018-09-18T19:17:25.379Z,50.96
2018-09-18T19:19:53.432Z,50.84
2018-09-18T19:22:21.496Z,51.82
2018-09-18T19:24:49.545Z,51.35
2018-09-18T19:27:17.674Z,52.17
2018-09-18T19:29:45.774Z,51.38
2018-09-18T19:32:13.847Z,51.61
2018-09-18T19:34:41.905Z,51.56
2018-09-18T19:37:10.138Z,52.08
2018-09-18T19:39:38.196Z,51.96
2018-09-18T19:42:06.259Z,52.82
2018-09-18T19:44:34.328Z,52.42
2018-09-18T19:47:02.380Z,53.17
2018-09-18T19:49:30.436Z,52.82
2018-09-18T19:51:58.628Z,52.66
2018-09-18T19:54:26.687Z,53.25
2018-09-18T19:56:54.734Z,53.09
2018-09-18T19:59:22.847Z,53.46
2018-09-18T20:01:50.903Z,53.44
2018-09-18T20:04:18.940Z,52.91
2018-09-18T20:06:47.008Z,53.62
2018-09-18T20:09:15.160Z,53.04
2018-09-18T20:11:43.138Z,53.76
2018-09-18T20:14:11.287Z,53.51
2018-09-18T20:16:39.461Z,53.17
2018-09-18T20:19:07.537Z,52.83
2018-09-18T20:21:35.557Z,53.32
2018-09-18T20:24:04.599Z,52.97
2018-09-18T20:26:32.671Z,53.88
2018-09-18T20:29:00.879Z,53.44
2018-09-18T20:31:28.826Z,53.92
2018-09-18T20:33:56.904Z,53.24
2018-09-18T20:36:25.083Z,53.42
2018-09-18T20:38:53.027Z,53.81
2018-09-18T20:41:21.084Z,53.42
2018-09-18T20:43:49.188Z,53.86
2018-09-18T20:46:17.249Z,53.44
2018-09-18T20:48:45.385Z,54.02
2018-09-18T20:51:13.507Z,54.21
2018-09-18T20:53:41.585Z,54.61
2018-09-18T20:56:10.131Z,53.72
2018-09-18T20:58:38.393Z,54.55
2018-09-18T21:01:06.484Z,53.80
2018-09-18T21:03:34.529Z,54.54
2018-09-18T21:06:02.626Z,54.14
2018-09-18T21:08:30.737Z,54.25
2018-09-18T21:10:58.726Z,54.71
2018-09-18T21:13:26.780Z,54.90
2018-09-18T21:15:54.833Z,54.30
2018-09-18T21:18:23.486Z,54.93
2018-09-18T21:20:51.586Z,54.93
2018-09-18T21:23:19.612Z,54.31
2018-09-18T21:26:03.987Z,55.16
2018-09-18T21:28:32.256Z,54.47
2018-09-18T21:31:00.404Z,55.39
2018-09-18T21:33:28.504Z,54.75
2018-09-18T21:35:56.567Z,55.56
2018-09-18T21:38:24.601Z,55.75
2018-09-18T21:40:52.686Z,55.22
2018-09-18T21:43:20.896Z,55.83
2018-09-18T21:45:49.417Z,55.75
2018-09-18T21:48:18.012Z,56.29
2018-09-18T21:50:46.076Z,56.08
2018-09-18T21:53:14.905Z,55.86
2018-09-18T21:55:43.740Z,56.40
2018-09-18T21:58:11.801Z,56.62
2018-09-18T22:00:40.020Z,55.83
2018-09-18T22:03:08.075Z,56.67
2018-09-18T22:05:36.177Z,57.00
2018-09-18T22:08:04.596Z,56.65
2018-09-18T22:10:32.669Z,57.20
2018-09-18T22:13:01.395Z,56.42
2018-09-18T22:15:30.074Z,56.67
2018-09-18T22:17:58.363Z,57.30
2018-09-18T22:20:26.455Z,57.69
2018-09-18T22:22:54.509Z,58.26
2018-09-18T22:25:23.203Z,58.10
2018-09-18T22:28:14.730Z,58.31
2018-09-18T22:30:42.972Z,58.89
2018-09-18T22:33:11.025Z,59.27
2018-09-18T22:35:39.103Z,58.60
2018-09-18T22:38:07.190Z,58.63
2018-09-18T22:40:35.387Z,59.77
2018-09-18T22:43:03.474Z,59.69
2018-09-18T22:45:31.525Z,59.07
2018-09-18T22:47:59.717Z,59.38
2018-09-18T22:50:27.762Z,59.72
2018-09-18T22:52:55.843Z,60.13
2018-09-18T22:55:23.897Z,60.03
2018-09-18T22:57:51.967Z,59.69
2018-09-18T23:00:20.039Z,59.84
2018-09-18T23:02:48.133Z,60.12
2018-09-18T23:05:16.179Z,60.41
2018-09-18T23:07:44.236Z,59.90
2018-09-18T23:10:12.450Z,60.81
2018-09-18T23:12:40.509Z,60.30
2018-09-18T23:15:08.567Z,60.38
2018-09-18T23:17:36.620Z,61.21
2018-09-18T23:20:05.786Z,61.07
2018-09-18T23:22:33.903Z,61.62
2018-09-18T23:25:01.957Z,61.26
2018-09-18T23:27:29.996Z,61.14
2018-09-18T23:29:58.054Z,61.47
2018-09-18T23:32:26.114Z,61.93
2018-09-18T23:34:54.171Z,62.11
2018-09-18T23:37:22.247Z,62.20
2018-09-18T23:39:50.325Z,63.20
2018-09-18T23:42:18.466Z,62.82
2018-09-18T23:44:46.463Z,63.61
2018-09-18T23:47:14.543Z,63.17
2018-09-18T23:49:42.611Z,63.49
2018-09-18T23:52:10.690Z,63.54
2018-09-18T23:54:38.742Z,63.85
2018-09-18T23:57:06.773Z,63.06
2018-09-18T23:59:34.825Z,62.82
